sensor_id;sensor_type;location;lat;lon;timestamp;pressure;altitude;pressure_sealevel;temperature;humidity
70304;BME280;57712;48.752;11.348;2023-04-05T00:02:10;98041.63;;;-0.77;100.00
70304;BME280;57712;48.752;11.348;2023-04-05T00:04:39;98042.41;;;-0.76;100.00
70304;BME280;57712;48.752;11.348;2023-04-05T00:07:16;98035.81;;;-0.79;100.00
70304;BME280;57712;48.752;11.348;2023-04-05T00:09:44;98031.88;;;-0.81;100.00
70304;BME280;57712;48.752;11.348;2023-04-05T00:12:12;98030.63;;;-0.84;100.00
70304;BME280;57712;48.752;11.348;2023-04-05T00:14:38;98030.63;;;-0.84;100.00
70304;BME280;57712;48.752;11.348;2023-04-05T00:17:06;98031.41;;;-0.83;100.00
70304;BME280;57712;48.752;11.348;2023-04-05T00:19:36;98035.22;;;-0.84;100.00
70304;BME280;57712;48.752;11.348;2023-04-05T00:22:03;98033.31;;;-0.84;100.00
70304;BME280;57712;48.752;11.348;2023-04-05T00:24:30;98027.47;;;-0.86;100.00
70304;BME280;57712;48.752;11.348;2023-04-05T00:26:59;98019.88;;;-0.84;100.00
70304;BME280;57712;48.752;11.348;2023-04-05T00:29:26;98025.19;;;-0.96;100.00
70304;BME280;57712;48.752;11.348;2023-04-05T00:31:53;98022.66;;;-0.93;100.00
70304;BME280;57712;48.752;11.348;2023-04-05T00:34:20;98021.41;;;-0.95;100.00
70304;BME280;57712;48.752;11.348;2023-04-05T00:36:47;98032.16;;;-0.95;100.00
70304;BME280;57712;48.752;11.348;2023-04-05T00:39:14;98026.72;;;-1.07;100.00
70304;BME280;57712;48.752;11.348;2023-04-05T00:41:41;98026.06;;;-1.04;100.00
70304;BME280;57712;48.752;11.348;2023-04-05T00:44:12;98018.22;;;-1.09;100.00
70304;BME280;57712;48.752;11.348;2023-04-05T00:46:39;98020.81;;;-1.01;100.00
70304;BME280;57712;48.752;11.348;2023-04-05T00:49:07;98018.47;;;-1.02;100.00
70304;BME280;57712;48.752;11.348;2023-04-05T00:51:34;98019.91;;;-1.05;100.00
70304;BME280;57712;48.752;11.348;2023-04-05T00:54:02;98016.63;;;-1.10;100.00
70304;BME280;57712;48.752;11.348;2023-04-05T00:56:29;98021.09;;;-1.14;100.00
70304;BME280;57712;48.752;11.348;2023-04-05T00:58:56;98011.00;;;-1.18;100.00
70304;BME280;57712;48.752;11.348;2023-04-05T01:01:24;98016.25;;;-1.42;100.00
70304;BME280;57712;48.752;11.348;2023-04-05T01:03:54;98014.53;;;-1.26;100.00
70304;BME280;57712;48.752;11.348;2023-04-05T01:06:37;98006.03;;;-1.28;100.00
70304;BME280;57712;48.752;11.348;2023-04-05T01:09:28;98002.69;;;-1.25;100.00
70304;BME280;57712;48.752;11.348;2023-04-05T01:12:00;98002.22;;;-1.27;100.00
70304;BME280;57712;48.752;11.348;2023-04-05T01:14:28;97996.84;;;-1.27;100.00
70304;BME280;57712;48.752;11.348;2023-04-05T01:16:55;97997.97;;;-1.28;100.00
70304;BME280;57712;48.752;11.348;2023-04-05T01:19:27;97994.38;;;-1.32;100.00
70304;BME280;57712;48.752;11.348;2023-04-05T01:22:09;97999.47;;;-1.39;100.00
70304;BME280;57712;48.752;11.348;2023-04-05T01:27:30;97993.03;;;-1.47;100.00
70304;BME280;57712;48.752;11.348;2023-04-05T01:30:32;97998.56;;;-1.43;100.00
70304;BME280;57712;48.752;11.348;2023-04-05T01:35:58;97985.69;;;-1.58;100.00
70304;BME280;57712;48.752;11.348;2023-04-05T01:38:27;97989.97;;;-1.57;100.00
70304;BME280;57712;48.752;11.348;2023-04-05T01:40:54;97989.78;;;-1.52;100.00
70304;BME280;57712;48.752;11.348;2023-04-05T01:43:21;97981.00;;;-1.61;100.00
70304;BME280;57712;48.752;11.348;2023-04-05T01:45:47;97983.69;;;-1.61;100.00
70304;BME280;57712;48.752;11.348;2023-04-05T01:48:14;97974.84;;;-1.62;100.00
70304;BME280;57712;48.752;11.348;2023-04-05T01:50:41;97977.19;;;-1.60;100.00
70304;BME280;57712;48.752;11.348;2023-04-05T01:53:09;97973.78;;;-1.69;100.00
70304;BME280;57712;48.752;11.348;2023-04-05T01:55:36;97975.16;;;-1.63;100.00
70304;BME280;57712;48.752;11.348;2023-04-05T01:58:03;97966.00;;;-1.62;100.00
70304;BME280;57712;48.752;11.348;2023-04-05T02:00:29;97974.38;;;-1.64;100.00
70304;BME280;57712;48.752;11.348;2023-04-05T02:02:56;97969.97;;;-1.68;100.00
70304;BME280;57712;48.752;11.348;2023-04-05T02:05:23;97967.28;;;-1.68;100.00
70304;BME280;57712;48.752;11.348;2023-04-05T02:07:50;97963.97;;;-1.65;100.00
70304;BME280;57712;48.752;11.348;2023-04-05T02:10:18;97964.47;;;-1.72;100.00
70304;BME280;57712;48.752;11.348;2023-04-05T02:12:44;97960.69;;;-1.71;100.00
70304;BME280;57712;48.752;11.348;2023-04-05T02:15:11;97963.03;;;-1.69;100.00
70304;BME280;57712;48.752;11.348;2023-04-05T02:17:38;97958.31;;;-1.72;100.00
70304;BME280;57712;48.752;11.348;2023-04-05T02:20:06;97962.78;;;-1.77;100.00
70304;BME280;57712;48.752;11.348;2023-04-05T02:22:34;97957.25;;;-1.80;100.00
70304;BME280;57712;48.752;11.348;2023-04-05T02:25:00;97955.81;;;-1.78;100.00
70304;BME280;57712;48.752;11.348;2023-04-05T02:27:29;97952.69;;;-1.80;100.00
70304;BME280;57712;48.752;11.348;2023-04-05T02:29:56;97955.69;;;-1.81;100.00
70304;BME280;57712;48.752;11.348;2023-04-05T02:32:24;97957.59;;;-1.82;100.00
70304;BME280;57712;48.752;11.348;2023-04-05T02:34:51;97949.75;;;-1.87;100.00
70304;BME280;57712;48.752;11.348;2023-04-05T02:37:19;97946.41;;;-1.84;100.00
70304;BME280;57712;48.752;11.348;2023-04-05T02:39:47;97949.13;;;-1.92;100.00
70304;BME280;57712;48.752;11.348;2023-04-05T02:42:14;97944.56;;;-1.92;100.00
70304;BME280;57712;48.752;11.348;2023-04-05T02:44:41;97934.59;;;-1.91;100.00
70304;BME280;57712;48.752;11.348;2023-04-05T02:47:08;97953.72;;;-1.93;100.00
70304;BME280;57712;48.752;11.348;2023-04-05T02:49:34;97942.19;;;-1.93;100.00
70304;BME280;57712;48.752;11.348;2023-04-05T02:52:01;97945.22;;;-1.95;100.00
70304;BME280;57712;48.752;11.348;2023-04-05T02:54:28;97943.19;;;-1.98;100.00
70304;BME280;57712;48.752;11.348;2023-04-05T02:56:54;97944.28;;;-1.99;100.00
70304;BME280;57712;48.752;11.348;2023-04-05T02:59:23;97947.16;;;-2.04;100.00
70304;BME280;57712;48.752;11.348;2023-04-05T03:01:51;97948.28;;;-2.05;100.00
70304;BME280;57712;48.752;11.348;2023-04-05T03:04:17;97942.91;;;-2.05;100.00
70304;BME280;57712;48.752;11.348;2023-04-05T03:06:44;97940.59;;;-2.15;100.00
70304;BME280;57712;48.752;11.348;2023-04-05T03:09:14;97938.25;;;-2.17;100.00
70304;BME280;57712;48.752;11.348;2023-04-05T03:11:40;97937.78;;;-2.19;100.00
70304;BME280;57712;48.752;11.348;2023-04-05T03:14:07;97937.47;;;-2.17;100.00
70304;BME280;57712;48.752;11.348;2023-04-05T03:16:34;97937.47;;;-2.17;100.00
70304;BME280;57712;48.752;11.348;2023-04-05T03:19:02;97939.66;;;-2.19;100.00
70304;BME280;57712;48.752;11.348;2023-04-05T03:21:31;97940.97;;;-2.25;100.00
70304;BME280;57712;48.752;11.348;2023-04-05T03:23:59;97944.88;;;-2.23;100.00
70304;BME280;57712;48.752;11.348;2023-04-05T03:26:25;97944.09;;;-2.23;100.00
70304;BME280;57712;48.752;11.348;2023-04-05T03:28:53;97940.63;;;-2.24;100.00
70304;BME280;57712;48.752;11.348;2023-04-05T03:31:19;97941.63;;;-2.28;100.00
70304;BME280;57712;48.752;11.348;2023-04-05T03:33:47;97941.63;;;-2.28;100.00
70304;BME280;57712;48.752;11.348;2023-04-05T03:36:16;97946.31;;;-2.25;100.00
70304;BME280;57712;48.752;11.348;2023-04-05T03:38:44;97949.66;;;-2.28;100.00
70304;BME280;57712;48.752;11.348;2023-04-05T03:41:11;97945.38;;;-2.29;100.00
70304;BME280;57712;48.752;11.348;2023-04-05T03:43:37;97943.19;;;-2.27;100.00
70304;BME280;57712;48.752;11.348;2023-04-05T03:46:04;97940.03;;;-2.29;100.00
70304;BME280;57712;48.752;11.348;2023-04-05T03:48:31;97941.13;;;-2.30;100.00
70304;BME280;57712;48.752;11.348;2023-04-05T03:50:57;97941.34;;;-2.36;100.00
70304;BME280;57712;48.752;11.348;2023-04-05T03:53:24;97936.44;;;-2.34;100.00
70304;BME280;57712;48.752;11.348;2023-04-05T03:55:51;97929.50;;;-2.35;100.00
70304;BME280;57712;48.752;11.348;2023-04-05T03:58:20;97926.81;;;-2.35;100.00
70304;BME280;57712;48.752;11.348;2023-04-05T04:00:46;97933.44;;;-2.41;100.00
70304;BME280;57712;48.752;11.348;2023-04-05T04:03:15;97926.84;;;-2.43;100.00
70304;BME280;57712;48.752;11.348;2023-04-05T04:05:42;97932.66;;;-2.41;100.00
70304;BME280;57712;48.752;11.348;2023-04-05T04:08:09;97925.88;;;-2.39;100.00
70304;BME280;57712;48.752;11.348;2023-04-05T04:10:36;97926.06;;;-2.44;100.00
70304;BME280;57712;48.752;11.348;2023-04-05T04:13:02;97927.16;;;-2.45;100.00
70304;BME280;57712;48.752;11.348;2023-04-05T04:15:29;97927.63;;;-2.43;100.00
70304;BME280;57712;48.752;11.348;2023-04-05T04:17:56;97919.44;;;-2.46;100.00
70304;BME280;57712;48.752;11.348;2023-04-05T04:20:23;97927.19;;;-2.53;100.00
70304;BME280;57712;48.752;11.348;2023-04-05T04:22:49;97918.25;;;-2.57;100.00
70304;BME280;57712;48.752;11.348;2023-04-05T04:25:19;97918.38;;;-2.54;100.00
70304;BME280;57712;48.752;11.348;2023-04-05T04:27:46;97922.03;;;-2.58;100.00
70304;BME280;57712;48.752;11.348;2023-04-05T04:30:13;97928.97;;;-2.57;100.00
70304;BME280;57712;48.752;11.348;2023-04-05T04:32:41;97928.66;;;-2.56;100.00
70304;BME280;57712;48.752;11.348;2023-04-05T04:35:23;97913.66;;;-2.57;100.00
70304;BME280;57712;48.752;11.348;2023-04-05T04:37:56;97928.19;;;-2.58;100.00
70304;BME280;57712;48.752;11.348;2023-04-05T04:40:34;97921.09;;;-2.63;100.00
70304;BME280;57712;48.752;11.348;2023-04-05T04:45:32;97922.38;;;-2.60;100.00
70304;BME280;57712;48.752;11.348;2023-04-05T04:48:00;97920.31;;;-2.63;100.00
70304;BME280;57712;48.752;11.348;2023-04-05T04:50:30;97919.69;;;-2.60;100.00
70304;BME280;57712;48.752;11.348;2023-04-05T04:52:58;97927.53;;;-2.55;100.00
70304;BME280;57712;48.752;11.348;2023-04-05T04:55:27;97932.25;;;-2.52;100.00
70304;BME280;57712;48.752;11.348;2023-04-05T04:57:54;97919.50;;;-2.55;100.00
70304;BME280;57712;48.752;11.348;2023-04-05T05:00:22;97936.97;;;-2.49;100.00
70304;BME280;57712;48.752;11.348;2023-04-05T05:02:51;97928.78;;;-2.52;100.00
70304;BME280;57712;48.752;11.348;2023-04-05T05:05:18;97932.25;;;-2.52;100.00
70304;BME280;57712;48.752;11.348;2023-04-05T05:07:49;97932.06;;;-2.47;100.00
70304;BME280;57712;48.752;11.348;2023-04-05T05:10:16;97919.59;;;-2.43;100.00
70304;BME280;57712;48.752;11.348;2023-04-05T05:12:43;97922.22;;;-2.34;100.00
70304;BME280;57712;48.752;11.348;2023-04-05T05:15:14;97922.69;;;-2.32;100.00
70304;BME280;57712;48.752;11.348;2023-04-05T05:17:40;97931.97;;;-2.29;100.00
70304;BME280;57712;48.752;11.348;2023-04-05T05:20:09;97929.13;;;-2.24;100.00
70304;BME280;57712;48.752;11.348;2023-04-05T05:22:37;97935.22;;;-2.15;100.00
70304;BME280;57712;48.752;11.348;2023-04-05T05:25:05;97938.66;;;-2.06;100.00
70304;BME280;57712;48.752;11.348;2023-04-05T05:27:32;97935.31;;;-2.03;100.00
70304;BME280;57712;48.752;11.348;2023-04-05T05:30:02;97941.41;;;-1.94;100.00
70304;BME280;57712;48.752;11.348;2023-04-05T05:32:29;97934.47;;;-1.95;100.00
70304;BME280;57712;48.752;11.348;2023-04-05T05:34:56;97933.94;;;-1.88;100.00
70304;BME280;57712;48.752;11.348;2023-04-05T05:37:30;97942.38;;;-1.78;100.00
70304;BME280;57712;48.752;11.348;2023-04-05T05:39:58;97943.13;;;-1.68;100.00
70304;BME280;57712;48.752;11.348;2023-04-05T05:42:25;97942.28;;;-1.60;100.00
70304;BME280;57712;48.752;11.348;2023-04-05T05:44:56;97939.84;;;-1.53;100.00
70304;BME280;57712;48.752;11.348;2023-04-05T05:47:23;97941.03;;;-1.42;100.00
70304;BME280;57712;48.752;11.348;2023-04-05T05:49:49;97936.72;;;-1.34;100.00
70304;BME280;57712;48.752;11.348;2023-04-05T05:52:16;97945.94;;;-1.23;100.00
70304;BME280;57712;48.752;11.348;2023-04-05T05:54:43;97947.41;;;-1.13;100.00
70304;BME280;57712;48.752;11.348;2023-04-05T05:57:09;97948.78;;;-1.07;100.00
70304;BME280;57712;48.752;11.348;2023-04-05T05:59:39;97933.78;;;-0.96;100.00
70304;BME280;57712;48.752;11.348;2023-04-05T06:02:07;97934.72;;;-0.92;100.00
70304;BME280;57712;48.752;11.348;2023-04-05T06:04:33;97931.72;;;-0.78;100.00
70304;BME280;57712;48.752;11.348;2023-04-05T06:07:01;97937.34;;;-0.71;100.00
70304;BME280;57712;48.752;11.348;2023-04-05T06:09:27;97939.59;;;-0.61;100.00
70304;BME280;57712;48.752;11.348;2023-04-05T06:11:54;97944.84;;;-0.52;100.00
70304;BME280;57712;48.752;11.348;2023-04-05T06:14:23;97941.97;;;-0.47;100.00
70304;BME280;57712;48.752;11.348;2023-04-05T06:16:50;97946.44;;;-0.39;100.00
70304;BME280;57712;48.752;11.348;2023-04-05T06:19:18;97948.69;;;-0.29;100.00
70304;BME280;57712;48.752;11.348;2023-04-05T06:21:45;97955.84;;;-0.21;100.00
70304;BME280;57712;48.752;11.348;2023-04-05T06:24:12;97960.78;;;-0.11;100.00
70304;BME280;57712;48.752;11.348;2023-04-05T06:26:39;97958.56;;;0.04;100.00
70304;BME280;57712;48.752;11.348;2023-04-05T06:29:06;97961.69;;;0.18;100.00
70304;BME280;57712;48.752;11.348;2023-04-05T06:31:34;97961.59;;;0.14;100.00
70304;BME280;57712;48.752;11.348;2023-04-05T06:34:01;97967.34;;;0.41;100.00
70304;BME280;57712;48.752;11.348;2023-04-05T06:36:31;97967.22;;;0.49;100.00
70304;BME280;57712;48.752;11.348;2023-04-05T06:38:59;97957.88;;;0.59;100.00
70304;BME280;57712;48.752;11.348;2023-04-05T06:41:26;97959.50;;;0.48;100.00
70304;BME280;57712;48.752;11.348;2023-04-05T06:43:53;97953.16;;;0.68;100.00
70304;BME280;57712;48.752;11.348;2023-04-05T06:46:20;97956.09;;;0.91;100.00
70304;BME280;57712;48.752;11.348;2023-04-05T06:48:47;97951.47;;;0.64;100.00
70304;BME280;57712;48.752;11.348;2023-04-05T06:51:15;97951.63;;;0.83;100.00
70304;BME280;57712;48.752;11.348;2023-04-05T06:53:42;97951.53;;;1.07;100.00
70304;BME280;57712;48.752;11.348;2023-04-05T06:56:08;97951.66;;;1.27;100.00
70304;BME280;57712;48.752;11.348;2023-04-05T06:58:35;97947.31;;;1.38;100.00
70304;BME280;57712;48.752;11.348;2023-04-05T07:01:02;97950.44;;;1.71;100.00
70304;BME280;57712;48.752;11.348;2023-04-05T07:03:29;97955.31;;;1.82;100.00
70304;BME280;57712;48.752;11.348;2023-04-05T07:05:58;97956.44;;;1.96;100.00
70304;BME280;57712;48.752;11.348;2023-04-05T07:08:26;97950.38;;;2.19;100.00
70304;BME280;57712;48.752;11.348;2023-04-05T07:10:53;97956.69;;;2.42;100.00
70304;BME280;57712;48.752;11.348;2023-04-05T07:13:20;97955.72;;;2.50;100.00
70304;BME280;57712;48.752;11.348;2023-04-05T07:15:48;97956.50;;;2.70;100.00
70304;BME280;57712;48.752;11.348;2023-04-05T07:18:14;97957.22;;;2.67;95.60
70304;BME280;57712;48.752;11.348;2023-04-05T07:20:41;97958.97;;;2.59;90.26
70304;BME280;57712;48.752;11.348;2023-04-05T07:23:08;97959.84;;;3.02;94.23
70304;BME280;57712;48.752;11.348;2023-04-05T07:25:35;97962.63;;;2.67;84.68
70304;BME280;57712;48.752;11.348;2023-04-05T07:28:02;97957.94;;;2.64;83.83
70304;BME280;57712;48.752;11.348;2023-04-05T07:30:29;97953.78;;;2.89;85.60
70304;BME280;57712;48.752;11.348;2023-04-05T07:32:57;97954.50;;;3.06;84.91
70304;BME280;57712;48.752;11.348;2023-04-05T07:35:24;97952.75;;;2.94;85.50
70304;BME280;57712;48.752;11.348;2023-04-05T07:37:51;97961.75;;;3.02;83.10
70304;BME280;57712;48.752;11.348;2023-04-05T07:40:18;97955.91;;;3.19;82.34
70304;BME280;57712;48.752;11.348;2023-04-05T07:42:44;97960.16;;;3.39;84.72
70304;BME280;57712;48.752;11.348;2023-04-05T07:45:11;97963.47;;;3.52;85.47
70304;BME280;57712;48.752;11.348;2023-04-05T07:47:38;97962.44;;;3.60;73.84
70304;BME280;57712;48.752;11.348;2023-04-05T07:50:05;97965.16;;;3.60;73.02
70304;BME280;57712;48.752;11.348;2023-04-05T07:52:32;97968.50;;;3.31;70.40
70304;BME280;57712;48.752;11.348;2023-04-05T07:54:59;97959.25;;;3.78;72.98
70304;BME280;57712;48.752;11.348;2023-04-05T07:57:25;97965.34;;;3.71;72.51
70304;BME280;57712;48.752;11.348;2023-04-05T07:59:53;97960.22;;;3.89;78.40
70304;BME280;57712;48.752;11.348;2023-04-05T08:02:21;97962.00;;;3.81;71.70
70304;BME280;57712;48.752;11.348;2023-04-05T08:04:47;97965.91;;;4.07;75.72
70304;BME280;57712;48.752;11.348;2023-04-05T08:07:14;97964.56;;;4.20;72.64
70304;BME280;57712;48.752;11.348;2023-04-05T08:09:41;97968.72;;;4.40;65.85
70304;BME280;57712;48.752;11.348;2023-04-05T08:12:08;97966.16;;;3.75;61.94
70304;BME280;57712;48.752;11.348;2023-04-05T08:14:37;97972.38;;;3.98;62.62
70304;BME280;57712;48.752;11.348;2023-04-05T08:17:03;97961.44;;;4.18;62.14
70304;BME280;57712;48.752;11.348;2023-04-05T08:19:30;97961.28;;;4.07;62.69
70304;BME280;57712;48.752;11.348;2023-04-05T08:21:56;97964.75;;;4.34;63.25
70304;BME280;57712;48.752;11.348;2023-04-05T08:24:23;97967.53;;;4.11;62.75
70304;BME280;57712;48.752;11.348;2023-04-05T08:26:50;97967.94;;;4.40;62.87
70304;BME280;57712;48.752;11.348;2023-04-05T08:29:17;97955.75;;;4.56;65.50
70304;BME280;57712;48.752;11.348;2023-04-05T08:31:44;97960.63;;;4.74;64.99
70304;BME280;57712;48.752;11.348;2023-04-05T08:34:10;97958.34;;;5.09;66.27
70304;BME280;57712;48.752;11.348;2023-04-05T08:36:38;97954.69;;;4.95;61.93
70304;BME280;57712;48.752;11.348;2023-04-05T08:39:04;97953.38;;;5.15;64.09
70304;BME280;57712;48.752;11.348;2023-04-05T08:41:35;97954.56;;;5.58;64.20
70304;BME280;57712;48.752;11.348;2023-04-05T08:44:09;97951.75;;;5.10;59.90
70304;BME280;57712;48.752;11.348;2023-04-05T08:46:36;97953.28;;;5.08;61.31
70304;BME280;57712;48.752;11.348;2023-04-05T08:49:05;97947.47;;;5.43;63.43
70304;BME280;57712;48.752;11.348;2023-04-05T08:51:38;97941.91;;;4.95;58.63
70304;BME280;57712;48.752;11.348;2023-04-05T08:54:05;97946.03;;;5.19;58.78
70304;BME280;57712;48.752;11.348;2023-04-05T08:56:33;97941.88;;;5.29;59.89
70304;BME280;57712;48.752;11.348;2023-04-05T08:59:03;97944.19;;;5.67;66.73
70304;BME280;57712;48.752;11.348;2023-04-05T09:01:32;97942.22;;;5.64;57.16
70304;BME280;57712;48.752;11.348;2023-04-05T09:04:01;97940.91;;;5.92;63.65
70304;BME280;57712;48.752;11.348;2023-04-05T09:06:35;97936.78;;;6.12;59.76
70304;BME280;57712;48.752;11.348;2023-04-05T09:09:05;97937.66;;;5.75;57.27
70304;BME280;57712;48.752;11.348;2023-04-05T09:11:33;97938.97;;;5.51;56.67
70304;BME280;57712;48.752;11.348;2023-04-05T09:14:02;97936.13;;;5.78;56.92
70304;BME280;57712;48.752;11.348;2023-04-05T09:16:38;97937.09;;;6.03;58.69
70304;BME280;57712;48.752;11.348;2023-04-05T09:19:05;97929.91;;;5.77;57.95
70304;BME280;57712;48.752;11.348;2023-04-05T09:22:08;97923.66;;;6.25;61.59
70304;BME280;57712;48.752;11.348;2023-04-05T09:27:14;97931.38;;;6.16;53.26
70304;BME280;57712;48.752;11.348;2023-04-05T09:29:43;97935.34;;;5.81;53.48
70304;BME280;57712;48.752;11.348;2023-04-05T09:32:11;97931.97;;;6.53;59.83
70304;BME280;57712;48.752;11.348;2023-04-05T09:34:39;97930.16;;;6.06;56.40
70304;BME280;57712;48.752;11.348;2023-04-05T09:39:44;97938.44;;;6.27;54.31
70304;BME280;57712;48.752;11.348;2023-04-05T09:42:12;97927.75;;;6.59;50.07
70304;BME280;57712;48.752;11.348;2023-04-05T09:47:16;97932.78;;;6.57;48.84
70304;BME280;57712;48.752;11.348;2023-04-05T09:49:43;97939.28;;;6.39;49.70
70304;BME280;57712;48.752;11.348;2023-04-05T09:52:24;97937.47;;;6.64;48.87
70304;BME280;57712;48.752;11.348;2023-04-05T09:54:56;97946.25;;;7.23;50.58
70304;BME280;57712;48.752;11.348;2023-04-05T09:57:24;97950.06;;;6.93;50.29
70304;BME280;57712;48.752;11.348;2023-04-05T09:59:53;97943.19;;;7.42;51.53
70304;BME280;57712;48.752;11.348;2023-04-05T10:02:23;97947.78;;;7.17;46.66
70304;BME280;57712;48.752;11.348;2023-04-05T10:04:50;97949.31;;;7.04;50.38
70304;BME280;57712;48.752;11.348;2023-04-05T10:07:18;97941.50;;;6.91;48.72
70304;BME280;57712;48.752;11.348;2023-04-05T10:09:46;97943.25;;;6.52;49.28
70304;BME280;57712;48.752;11.348;2023-04-05T10:12:32;97942.78;;;5.88;48.04
70304;BME280;57712;48.752;11.348;2023-04-05T10:14:59;97939.44;;;6.01;51.30
70304;BME280;57712;48.752;11.348;2023-04-05T10:28:29;97934.88;;;8.85;48.40
70304;BME280;57712;48.752;11.348;2023-04-05T10:34:06;97912.28;;;8.74;43.85
70304;BME280;57712;48.752;11.348;2023-04-05T10:36:40;97913.59;;;8.37;43.08
70304;BME280;57712;48.752;11.348;2023-04-05T10:39:28;97916.81;;;9.05;41.95
70304;BME280;57712;48.752;11.348;2023-04-05T10:42:00;97916.47;;;8.96;44.41
70304;BME280;57712;48.752;11.348;2023-04-05T10:44:30;97913.84;;;8.75;42.95
70304;BME280;57712;48.752;11.348;2023-04-05T10:46:59;97921.69;;;8.65;45.91
70304;BME280;57712;48.752;11.348;2023-04-05T10:49:37;97924.78;;;8.71;47.98
70304;BME280;57712;48.752;11.348;2023-04-05T10:52:05;97916.06;;;9.01;46.24
70304;BME280;57712;48.752;11.348;2023-04-05T10:54:33;97908.44;;;9.41;46.23
70304;BME280;57712;48.752;11.348;2023-04-05T10:57:07;97920.44;;;8.84;44.93
70304;BME280;57712;48.752;11.348;2023-04-05T10:59:41;97915.78;;;9.51;48.67
70304;BME280;57712;48.752;11.348;2023-04-05T11:02:08;97905.13;;;9.05;45.55
70304;BME280;57712;48.752;11.348;2023-04-05T11:04:35;97907.72;;;9.30;44.40
70304;BME280;57712;48.752;11.348;2023-04-05T11:07:13;97910.13;;;10.24;44.27
70304;BME280;57712;48.752;11.348;2023-04-05T11:10:00;97906.94;;;11.28;43.94
70304;BME280;57712;48.752;11.348;2023-04-05T11:23:09;97905.66;;;11.36;38.70
70304;BME280;57712;48.752;11.348;2023-04-05T11:25:38;97896.50;;;11.46;38.65
70304;BME280;57712;48.752;11.348;2023-04-05T11:28:07;97901.91;;;12.24;41.17
70304;BME280;57712;48.752;11.348;2023-04-05T11:30:47;97883.41;;;12.48;39.09
70304;BME280;57712;48.752;11.348;2023-04-05T11:33:37;97901.38;;;11.05;41.81
70304;BME280;57712;48.752;11.348;2023-04-05T11:36:04;97896.44;;;10.92;42.26
70304;BME280;57712;48.752;11.348;2023-04-05T11:38:31;97891.81;;;10.55;40.94
70304;BME280;57712;48.752;11.348;2023-04-05T11:41:16;97882.56;;;10.42;40.88
70304;BME280;57712;48.752;11.348;2023-04-05T11:43:44;97888.97;;;12.01;42.56
70304;BME280;57712;48.752;11.348;2023-04-05T11:46:13;97875.34;;;11.70;40.25
70304;BME280;57712;48.752;11.348;2023-04-05T11:48:48;97868.63;;;12.41;36.97
70304;BME280;57712;48.752;11.348;2023-04-05T11:51:15;97884.13;;;11.04;39.12
70304;BME280;57712;48.752;11.348;2023-04-05T11:53:45;97881.81;;;11.03;39.03
70304;BME280;57712;48.752;11.348;2023-04-05T11:56:12;97872.28;;;10.50;41.10
70304;BME280;57712;48.752;11.348;2023-04-05T11:58:41;97872.22;;;11.18;39.77
70304;BME280;57712;48.752;11.348;2023-04-05T12:01:08;97873.81;;;11.93;40.99
70304;BME280;57712;48.752;11.348;2023-04-05T12:03:35;97872.78;;;11.60;39.07
70304;BME280;57712;48.752;11.348;2023-04-05T12:06:04;97872.31;;;12.11;38.41
70304;BME280;57712;48.752;11.348;2023-04-05T12:08:45;97870.22;;;11.96;39.60
70304;BME280;57712;48.752;11.348;2023-04-05T12:11:26;97858.47;;;10.26;38.10
70304;BME280;57712;48.752;11.348;2023-04-05T12:13:56;97866.31;;;10.24;37.89
70304;BME280;57712;48.752;11.348;2023-04-05T12:16:27;97860.91;;;10.85;42.62
70304;BME280;57712;48.752;11.348;2023-04-05T12:18:55;97858.34;;;12.02;40.57
70304;BME280;57712;48.752;11.348;2023-04-05T12:21:26;97852.19;;;12.38;37.74
70304;BME280;57712;48.752;11.348;2023-04-05T12:23:53;97853.50;;;12.89;39.07
70304;BME280;57712;48.752;11.348;2023-04-05T12:26:20;97851.44;;;11.94;38.87
70304;BME280;57712;48.752;11.348;2023-04-05T12:28:56;97854.78;;;11.82;39.10
70304;BME280;57712;48.752;11.348;2023-04-05T12:31:43;97842.41;;;12.77;37.22
70304;BME280;57712;48.752;11.348;2023-04-05T12:34:14;97848.50;;;13.04;37.86
70304;BME280;57712;48.752;11.348;2023-04-05T12:36:48;97843.53;;;13.15;36.20
70304;BME280;57712;48.752;11.348;2023-04-05T12:39:15;97839.91;;;12.03;38.67
70304;BME280;57712;48.752;11.348;2023-04-05T12:41:43;97833.88;;;12.31;38.56
70304;BME280;57712;48.752;11.348;2023-04-05T12:44:27;97841.47;;;11.80;37.78
70304;BME280;57712;48.752;11.348;2023-04-05T12:46:59;97818.41;;;10.39;37.39
70304;BME280;57712;48.752;11.348;2023-04-05T12:49:27;97829.66;;;11.33;40.28
70304;BME280;57712;48.752;11.348;2023-04-05T12:51:59;97828.69;;;11.47;39.07
70304;BME280;57712;48.752;11.348;2023-04-05T12:54:28;97818.41;;;12.41;38.10
70304;BME280;57712;48.752;11.348;2023-04-05T12:56:56;97819.34;;;12.70;38.91
70304;BME280;57712;48.752;11.348;2023-04-05T12:59:23;97819.50;;;12.83;35.40
70304;BME280;57712;48.752;11.348;2023-04-05T13:01:50;97820.50;;;13.74;36.69
70304;BME280;57712;48.752;11.348;2023-04-05T13:04:17;97824.44;;;11.42;37.78
70304;BME280;57712;48.752;11.348;2023-04-05T13:06:44;97819.31;;;10.29;37.69
70304;BME280;57712;48.752;11.348;2023-04-05T13:09:16;97812.22;;;10.96;39.62
70304;BME280;57712;48.752;11.348;2023-04-05T13:11:42;97807.72;;;11.33;40.74
70304;BME280;57712;48.752;11.348;2023-04-05T13:14:09;97809.53;;;11.67;38.18
70304;BME280;57712;48.752;11.348;2023-04-05T13:16:36;97801.34;;;10.89;38.35
70304;BME280;57712;48.752;11.348;2023-04-05T13:19:03;97805.66;;;11.14;41.81
70304;BME280;57712;48.752;11.348;2023-04-05T13:21:29;97798.91;;;11.45;39.21
70304;BME280;57712;48.752;11.348;2023-04-05T13:23:56;97798.31;;;10.84;40.09
70304;BME280;57712;48.752;11.348;2023-04-05T13:26:24;97797.84;;;9.90;40.61
70304;BME280;57712;48.752;11.348;2023-04-05T13:28:51;97802.41;;;10.68;41.33
70304;BME280;57712;48.752;11.348;2023-04-05T13:31:17;97790.84;;;9.86;39.58
70304;BME280;57712;48.752;11.348;2023-04-05T13:33:44;97801.72;;;9.89;39.01
70304;BME280;57712;48.752;11.348;2023-04-05T13:36:11;97785.75;;;10.83;41.39
70304;BME280;57712;48.752;11.348;2023-04-05T13:38:38;97797.34;;;10.36;41.04